sensor_id;sensor_type;location;lat;lon;timestamp;P1;durP1;ratioP1;P2;durP2;ratioP2
9860;SDS011;4969;52.304;4.968;2023-07-16T00:00:09;11.68;;;3.38;;
9860;SDS011;4969;52.304;4.968;2023-07-16T00:05:04;5.40;;;2.92;;
9860;SDS011;4969;52.304;4.968;2023-07-16T00:07:31;12.10;;;3.50;;
9860;SDS011;4969;52.304;4.968;2023-07-16T00:09:58;8.02;;;3.00;;
9860;SDS011;4969;52.304;4.968;2023-07-16T00:12:25;6.47;;;3.28;;
9860;SDS011;4969;52.304;4.968;2023-07-16T00:14:53;10.02;;;3.10;;
9860;SDS011;4969;52.304;4.968;2023-07-16T00:17:20;8.55;;;3.30;;
9860;SDS011;4969;52.304;4.968;2023-07-16T00:19:47;7.68;;;3.22;;
9860;SDS011;4969;52.304;4.968;2023-07-16T00:22:13;11.90;;;3.40;;
9860;SDS011;4969;52.304;4.968;2023-07-16T00:24:40;9.68;;;3.40;;
9860;SDS011;4969;52.304;4.968;2023-07-16T00:27:06;6.65;;;3.20;;
9860;SDS011;4969;52.304;4.968;2023-07-16T00:29:33;8.25;;;3.88;;
9860;SDS011;4969;52.304;4.968;2023-07-16T00:32:01;7.95;;;3.30;;
9860;SDS011;4969;52.304;4.968;2023-07-16T00:34:28;11.55;;;3.50;;
9860;SDS011;4969;52.304;4.968;2023-07-16T00:36:54;10.38;;;3.33;;
9860;SDS011;4969;52.304;4.968;2023-07-16T00:39:26;8.07;;;3.72;;
9860;SDS011;4969;52.304;4.968;2023-07-16T00:41:53;8.80;;;3.72;;
9860;SDS011;4969;52.304;4.968;2023-07-16T00:44:19;10.90;;;4.20;;
9860;SDS011;4969;52.304;4.968;2023-07-16T00:46:46;10.60;;;4.03;;
9860;SDS011;4969;52.304;4.968;2023-07-16T00:49:14;10.27;;;3.90;;
9860;SDS011;4969;52.304;4.968;2023-07-16T00:51:41;9.35;;;3.72;;
9860;SDS011;4969;52.304;4.968;2023-07-16T00:54:08;8.63;;;4.07;;
9860;SDS011;4969;52.304;4.968;2023-07-16T00:56:35;10.68;;;4.10;;
9860;SDS011;4969;52.304;4.968;2023-07-16T00:59:03;9.68;;;3.72;;
9860;SDS011;4969;52.304;4.968;2023-07-16T01:01:30;11.73;;;4.78;;
9860;SDS011;4969;52.304;4.968;2023-07-16T01:03:56;5.68;;;4.28;;
9860;SDS011;4969;52.304;4.968;2023-07-16T01:06:26;10.05;;;4.18;;
9860;SDS011;4969;52.304;4.968;2023-07-16T01:09:01;10.15;;;4.05;;
9860;SDS011;4969;52.304;4.968;2023-07-16T01:11:29;9.18;;;4.07;;
9860;SDS011;4969;52.304;4.968;2023-07-16T01:14:00;11.98;;;4.32;;
9860;SDS011;4969;52.304;4.968;2023-07-16T01:16:27;11.23;;;4.95;;
9860;SDS011;4969;52.304;4.968;2023-07-16T01:18:54;7.25;;;3.83;;
9860;SDS011;4969;52.304;4.968;2023-07-16T01:21:21;10.18;;;4.70;;
9860;SDS011;4969;52.304;4.968;2023-07-16T01:26:56;8.18;;;4.05;;
9860;SDS011;4969;52.304;4.968;2023-07-16T01:29:33;9.57;;;4.55;;
9860;SDS011;4969;52.304;4.968;2023-07-16T01:32:03;8.40;;;4.03;;
9860;SDS011;4969;52.304;4.968;2023-07-16T01:34:32;11.00;;;4.72;;
9860;SDS011;4969;52.304;4.968;2023-07-16T01:37:00;6.90;;;4.30;;
9860;SDS011;4969;52.304;4.968;2023-07-16T01:39:28;8.45;;;4.50;;
9860;SDS011;4969;52.304;4.968;2023-07-16T01:41:55;9.65;;;4.43;;
9860;SDS011;4969;52.304;4.968;2023-07-16T01:44:22;9.85;;;4.22;;
9860;SDS011;4969;52.304;4.968;2023-07-16T01:46:53;11.48;;;4.78;;
9860;SDS011;4969;52.304;4.968;2023-07-16T01:49:30;9.32;;;4.28;;
9860;SDS011;4969;52.304;4.968;2023-07-16T01:51:57;11.23;;;4.90;;
9860;SDS011;4969;52.304;4.968;2023-07-16T01:54:23;10.55;;;4.68;;
9860;SDS011;4969;52.304;4.968;2023-07-16T01:56:50;10.70;;;4.82;;
9860;SDS011;4969;52.304;4.968;2023-07-16T01:59:17;9.88;;;5.50;;
9860;SDS011;4969;52.304;4.968;2023-07-16T02:01:43;7.00;;;5.03;;
9860;SDS011;4969;52.304;4.968;2023-07-16T02:04:11;12.77;;;4.93;;
9860;SDS011;4969;52.304;4.968;2023-07-16T02:06:38;12.88;;;4.82;;
9860;SDS011;4969;52.304;4.968;2023-07-16T02:09:04;9.35;;;4.90;;
9860;SDS011;4969;52.304;4.968;2023-07-16T02:11:31;14.70;;;5.93;;
9860;SDS011;4969;52.304;4.968;2023-07-16T02:13:57;10.23;;;6.10;;
9860;SDS011;4969;52.304;4.968;2023-07-16T02:16:24;13.15;;;5.88;;
9860;SDS011;4969;52.304;4.968;2023-07-16T02:18:50;12.95;;;5.78;;
9860;SDS011;4969;52.304;4.968;2023-07-16T02:21:18;14.57;;;5.95;;
9860;SDS011;4969;52.304;4.968;2023-07-16T02:23:45;12.35;;;6.30;;
9860;SDS011;4969;52.304;4.968;2023-07-16T02:26:12;9.55;;;6.15;;
9860;SDS011;4969;52.304;4.968;2023-07-16T02:28:38;15.30;;;6.47;;
9860;SDS011;4969;52.304;4.968;2023-07-16T02:31:05;11.02;;;6.47;;
9860;SDS011;4969;52.304;4.968;2023-07-16T02:33:31;13.60;;;6.90;;
9860;SDS011;4969;52.304;4.968;2023-07-16T02:35:58;9.18;;;6.25;;
9860;SDS011;4969;52.304;4.968;2023-07-16T02:38:26;12.35;;;6.93;;
9860;SDS011;4969;52.304;4.968;2023-07-16T02:40:53;10.40;;;6.53;;
9860;SDS011;4969;52.304;4.968;2023-07-16T02:43:19;14.15;;;6.75;;
9860;SDS011;4969;52.304;4.968;2023-07-16T02:45:46;12.32;;;6.32;;
9860;SDS011;4969;52.304;4.968;2023-07-16T02:48:13;12.18;;;6.72;;
9860;SDS011;4969;52.304;4.968;2023-07-16T02:50:39;20.45;;;7.57;;
9860;SDS011;4969;52.304;4.968;2023-07-16T02:53:06;13.55;;;6.82;;
9860;SDS011;4969;52.304;4.968;2023-07-16T02:55:35;13.20;;;6.72;;
9860;SDS011;4969;52.304;4.968;2023-07-16T02:58:02;11.98;;;6.85;;
9860;SDS011;4969;52.304;4.968;2023-07-16T03:00:29;14.38;;;7.28;;
9860;SDS011;4969;52.304;4.968;2023-07-16T03:02:56;12.90;;;6.72;;
9860;SDS011;4969;52.304;4.968;2023-07-16T03:05:23;10.38;;;6.60;;
9860;SDS011;4969;52.304;4.968;2023-07-16T03:07:50;13.25;;;7.18;;
9860;SDS011;4969;52.304;4.968;2023-07-16T03:10:17;13.00;;;7.47;;
9860;SDS011;4969;52.304;4.968;2023-07-16T03:12:45;16.98;;;7.32;;
9860;SDS011;4969;52.304;4.968;2023-07-16T03:15:11;14.63;;;7.47;;
9860;SDS011;4969;52.304;4.968;2023-07-16T03:17:38;13.93;;;7.18;;
9860;SDS011;4969;52.304;4.968;2023-07-16T03:20:05;13.65;;;6.93;;
9860;SDS011;4969;52.304;4.968;2023-07-16T03:22:32;12.15;;;7.63;;
9860;SDS011;4969;52.304;4.968;2023-07-16T03:24:59;14.10;;;7.45;;
9860;SDS011;4969;52.304;4.968;2023-07-16T03:27:26;14.70;;;7.13;;
9860;SDS011;4969;52.304;4.968;2023-07-16T03:29:54;13.57;;;7.97;;
9860;SDS011;4969;52.304;4.968;2023-07-16T03:32:20;16.23;;;7.68;;
9860;SDS011;4969;52.304;4.968;2023-07-16T03:34:47;15.23;;;7.55;;
9860;SDS011;4969;52.304;4.968;2023-07-16T03:37:13;17.15;;;6.90;;
9860;SDS011;4969;52.304;4.968;2023-07-16T03:39:40;12.40;;;7.00;;
9860;SDS011;4969;52.304;4.968;2023-07-16T03:42:06;13.02;;;6.53;;
9860;SDS011;4969;52.304;4.968;2023-07-16T03:44:33;10.48;;;7.47;;
9860;SDS011;4969;52.304;4.968;2023-07-16T03:47:01;11.02;;;6.75;;
9860;SDS011;4969;52.304;4.968;2023-07-16T03:49:28;13.07;;;6.03;;
9860;SDS011;4969;52.304;4.968;2023-07-16T03:51:55;15.05;;;6.70;;
9860;SDS011;4969;52.304;4.968;2023-07-16T03:54:21;11.02;;;5.65;;
9860;SDS011;4969;52.304;4.968;2023-07-16T03:56:48;11.23;;;5.78;;
9860;SDS011;4969;52.304;4.968;2023-07-16T03:59:14;11.80;;;5.18;;
9860;SDS011;4969;52.304;4.968;2023-07-16T04:01:41;10.00;;;5.38;;
9860;SDS011;4969;52.304;4.968;2023-07-16T04:04:09;8.93;;;4.97;;
9860;SDS011;4969;52.304;4.968;2023-07-16T04:06:35;11.45;;;5.10;;
9860;SDS011;4969;52.304;4.968;2023-07-16T04:09:02;14.02;;;5.03;;
9860;SDS011;4969;52.304;4.968;2023-07-16T04:11:29;12.05;;;5.47;;
9860;SDS011;4969;52.304;4.968;2023-07-16T04:13:56;10.07;;;5.50;;
9860;SDS011;4969;52.304;4.968;2023-07-16T04:16:22;12.10;;;5.82;;
9860;SDS011;4969;52.304;4.968;2023-07-16T04:18:49;11.25;;;6.03;;
9860;SDS011;4969;52.304;4.968;2023-07-16T04:21:17;8.43;;;5.35;;
9860;SDS011;4969;52.304;4.968;2023-07-16T04:23:43;10.75;;;5.60;;
9860;SDS011;4969;52.304;4.968;2023-07-16T04:26:10;11.27;;;5.93;;
9860;SDS011;4969;52.304;4.968;2023-07-16T04:28:37;10.98;;;6.32;;
9860;SDS011;4969;52.304;4.968;2023-07-16T04:31:04;13.60;;;6.35;;
9860;SDS011;4969;52.304;4.968;2023-07-16T04:33:30;13.63;;;5.72;;
9860;SDS011;4969;52.304;4.968;2023-07-16T04:35:57;13.02;;;6.28;;
9860;SDS011;4969;52.304;4.968;2023-07-16T04:38:25;11.55;;;5.70;;
9860;SDS011;4969;52.304;4.968;2023-07-16T04:40:52;14.48;;;5.88;;
9860;SDS011;4969;52.304;4.968;2023-07-16T04:43:21;11.10;;;6.35;;
9860;SDS011;4969;52.304;4.968;2023-07-16T04:45:48;11.30;;;5.80;;
9860;SDS011;4969;52.304;4.968;2023-07-16T04:48:15;11.88;;;5.93;;
9860;SDS011;4969;52.304;4.968;2023-07-16T04:50:41;10.15;;;5.30;;
9860;SDS011;4969;52.304;4.968;2023-07-16T04:53:08;9.63;;;5.63;;
9860;SDS011;4969;52.304;4.968;2023-07-16T04:55:36;7.78;;;5.53;;
9860;SDS011;4969;52.304;4.968;2023-07-16T04:58:04;10.82;;;5.70;;
9860;SDS011;4969;52.304;4.968;2023-07-16T05:00:31;9.60;;;5.85;;
9860;SDS011;4969;52.304;4.968;2023-07-16T05:02:57;7.53;;;5.50;;
9860;SDS011;4969;52.304;4.968;2023-07-16T05:05:24;10.57;;;6.15;;
9860;SDS011;4969;52.304;4.968;2023-07-16T05:07:51;9.27;;;5.45;;
9860;SDS011;4969;52.304;4.968;2023-07-16T05:10:17;8.65;;;5.50;;
9860;SDS011;4969;52.304;4.968;2023-07-16T05:12:45;12.60;;;5.82;;
9860;SDS011;4969;52.304;4.968;2023-07-16T05:15:12;11.48;;;5.68;;
9860;SDS011;4969;52.304;4.968;2023-07-16T05:17:39;10.30;;;5.82;;
9860;SDS011;4969;52.304;4.968;2023-07-16T05:20:06;9.43;;;5.88;;
9860;SDS011;4969;52.304;4.968;2023-07-16T05:22:34;10.45;;;6.15;;
9860;SDS011;4969;52.304;4.968;2023-07-16T05:25:01;10.73;;;6.60;;
9860;SDS011;4969;52.304;4.968;2023-07-16T05:27:27;11.65;;;5.97;;
9860;SDS011;4969;52.304;4.968;2023-07-16T05:29:55;9.02;;;5.90;;
9860;SDS011;4969;52.304;4.968;2023-07-16T05:32:22;12.35;;;6.40;;
9860;SDS011;4969;52.304;4.968;2023-07-16T05:34:49;7.95;;;5.78;;
9860;SDS011;4969;52.304;4.968;2023-07-16T05:37:15;10.65;;;6.13;;
9860;SDS011;4969;52.304;4.968;2023-07-16T05:39:42;9.18;;;5.85;;
9860;SDS011;4969;52.304;4.968;2023-07-16T05:42:08;9.80;;;6.20;;
9860;SDS011;4969;52.304;4.968;2023-07-16T05:44:35;8.27;;;5.88;;
9860;SDS011;4969;52.304;4.968;2023-07-16T05:47:03;8.02;;;5.53;;
9860;SDS011;4969;52.304;4.968;2023-07-16T05:49:30;8.98;;;5.95;;
9860;SDS011;4969;52.304;4.968;2023-07-16T05:51:57;11.43;;;6.30;;
9860;SDS011;4969;52.304;4.968;2023-07-16T05:54:23;8.80;;;5.20;;
9860;SDS011;4969;52.304;4.968;2023-07-16T05:56:50;10.45;;;5.45;;
9860;SDS011;4969;52.304;4.968;2023-07-16T05:59:17;8.05;;;5.38;;
9860;SDS011;4969;52.304;4.968;2023-07-16T06:01:43;6.05;;;5.40;;
9860;SDS011;4969;52.304;4.968;2023-07-16T06:04:11;10.05;;;5.38;;
9860;SDS011;4969;52.304;4.968;2023-07-16T06:06:38;5.20;;;4.63;;
9860;SDS011;4969;52.304;4.968;2023-07-16T06:09:05;9.25;;;5.53;;
9860;SDS011;4969;52.304;4.968;2023-07-16T06:11:31;6.93;;;5.32;;
9860;SDS011;4969;52.304;4.968;2023-07-16T06:13:58;10.88;;;5.50;;
9860;SDS011;4969;52.304;4.968;2023-07-16T06:16:25;7.45;;;5.43;;
9860;SDS011;4969;52.304;4.968;2023-07-16T06:18:52;8.00;;;5.60;;
9860;SDS011;4969;52.304;4.968;2023-07-16T06:21:20;10.00;;;6.15;;
9860;SDS011;4969;52.304;4.968;2023-07-16T06:23:46;10.15;;;5.60;;
9860;SDS011;4969;52.304;4.968;2023-07-16T06:26:13;12.20;;;5.40;;
9860;SDS011;4969;52.304;4.968;2023-07-16T06:28:39;8.95;;;5.25;;
9860;SDS011;4969;52.304;4.968;2023-07-16T06:31:06;13.05;;;5.72;;
9860;SDS011;4969;52.304;4.968;2023-07-16T06:33:32;9.50;;;5.35;;
9860;SDS011;4969;52.304;4.968;2023-07-16T06:35:59;8.57;;;5.32;;
9860;SDS011;4969;52.304;4.968;2023-07-16T06:38:27;10.60;;;5.90;;
9860;SDS011;4969;52.304;4.968;2023-07-16T06:40:55;9.20;;;5.55;;
9860;SDS011;4969;52.304;4.968;2023-07-16T06:43:21;7.05;;;5.30;;
9860;SDS011;4969;52.304;4.968;2023-07-16T06:45:48;8.73;;;5.05;;
9860;SDS011;4969;52.304;4.968;2023-07-16T06:48:15;10.50;;;5.15;;
9860;SDS011;4969;52.304;4.968;2023-07-16T06:50:42;14.25;;;6.13;;
9860;SDS011;4969;52.304;4.968;2023-07-16T06:53:09;9.13;;;5.63;;
9860;SDS011;4969;52.304;4.968;2023-07-16T06:55:37;8.68;;;5.55;;
9860;SDS011;4969;52.304;4.968;2023-07-16T06:58:03;8.98;;;6.05;;
9860;SDS011;4969;52.304;4.968;2023-07-16T07:00:30;10.45;;;6.35;;
9860;SDS011;4969;52.304;4.968;2023-07-16T07:02:57;12.50;;;6.43;;
9860;SDS011;4969;52.304;4.968;2023-07-16T07:05:23;10.90;;;6.07;;
9860;SDS011;4969;52.304;4.968;2023-07-16T07:07:50;10.18;;;5.15;;
9860;SDS011;4969;52.304;4.968;2023-07-16T07:10:17;9.15;;;5.55;;
9860;SDS011;4969;52.304;4.968;2023-07-16T07:12:45;8.63;;;5.97;;
9860;SDS011;4969;52.304;4.968;2023-07-16T07:15:11;9.50;;;5.93;;
9860;SDS011;4969;52.304;4.968;2023-07-16T07:17:38;11.57;;;5.78;;
9860;SDS011;4969;52.304;4.968;2023-07-16T07:20:05;9.02;;;5.68;;
9860;SDS011;4969;52.304;4.968;2023-07-16T07:22:33;10.00;;;5.47;;
9860;SDS011;4969;52.304;4.968;2023-07-16T07:24:59;10.60;;;5.55;;
9860;SDS011;4969;52.304;4.968;2023-07-16T07:27:26;10.50;;;5.50;;
9860;SDS011;4969;52.304;4.968;2023-07-16T07:29:54;8.85;;;5.43;;
9860;SDS011;4969;52.304;4.968;2023-07-16T07:32:21;10.27;;;5.50;;
9860;SDS011;4969;52.304;4.968;2023-07-16T07:34:48;7.60;;;5.05;;
9860;SDS011;4969;52.304;4.968;2023-07-16T07:37:14;9.20;;;5.70;;
9860;SDS011;4969;52.304;4.968;2023-07-16T07:39:41;9.73;;;5.65;;
9860;SDS011;4969;52.304;4.968;2023-07-16T07:42:08;9.43;;;5.78;;
9860;SDS011;4969;52.304;4.968;2023-07-16T07:44:35;8.40;;;5.40;;
9860;SDS011;4969;52.304;4.968;2023-07-16T07:47:03;7.65;;;5.43;;
9860;SDS011;4969;52.304;4.968;2023-07-16T07:49:30;8.25;;;5.55;;
9860;SDS011;4969;52.304;4.968;2023-07-16T07:51:56;12.80;;;6.10;;
9860;SDS011;4969;52.304;4.968;2023-07-16T07:54:23;8.50;;;5.55;;
9860;SDS011;4969;52.304;4.968;2023-07-16T07:56:49;8.50;;;5.57;;
9860;SDS011;4969;52.304;4.968;2023-07-16T07:59:16;11.23;;;5.63;;
9860;SDS011;4969;52.304;4.968;2023-07-16T08:01:43;9.88;;;6.10;;
9860;SDS011;4969;52.304;4.968;2023-07-16T08:04:11;10.02;;;6.05;;
9860;SDS011;4969;52.304;4.968;2023-07-16T08:06:37;14.85;;;6.72;;
9860;SDS011;4969;52.304;4.968;2023-07-16T08:09:04;8.98;;;6.30;;
9860;SDS011;4969;52.304;4.968;2023-07-16T08:11:30;8.57;;;6.43;;
9860;SDS011;4969;52.304;4.968;2023-07-16T08:13:57;13.00;;;5.82;;
9860;SDS011;4969;52.304;4.968;2023-07-16T08:16:24;8.77;;;5.95;;
9860;SDS011;4969;52.304;4.968;2023-07-16T08:18:51;10.65;;;6.10;;
9860;SDS011;4969;52.304;4.968;2023-07-16T08:21:19;12.60;;;6.55;;
9860;SDS011;4969;52.304;4.968;2023-07-16T08:23:46;11.32;;;6.40;;
9860;SDS011;4969;52.304;4.968;2023-07-16T08:26:13;8.50;;;6.07;;
9860;SDS011;4969;52.304;4.968;2023-07-16T08:28:39;11.00;;;5.78;;
9860;SDS011;4969;52.304;4.968;2023-07-16T08:31:06;9.82;;;5.82;;
9860;SDS011;4969;52.304;4.968;2023-07-16T08:33:33;11.00;;;6.15;;
9860;SDS011;4969;52.304;4.968;2023-07-16T08:35:59;8.43;;;6.07;;
9860;SDS011;4969;52.304;4.968;2023-07-16T08:38:27;9.45;;;5.93;;
9860;SDS011;4969;52.304;4.968;2023-07-16T08:40:54;10.00;;;6.22;;
9860;SDS011;4969;52.304;4.968;2023-07-16T08:43:20;9.48;;;6.07;;
9860;SDS011;4969;52.304;4.968;2023-07-16T08:45:48;12.10;;;6.47;;
9860;SDS011;4969;52.304;4.968;2023-07-16T08:48:15;12.02;;;6.38;;
9860;SDS011;4969;52.304;4.968;2023-07-16T08:50:43;9.63;;;5.93;;
9860;SDS011;4969;52.304;4.968;2023-07-16T08:53:13;9.90;;;6.40;;
9860;SDS011;4969;52.304;4.968;2023-07-16T08:55:42;11.82;;;6.38;;
9860;SDS011;4969;52.304;4.968;2023-07-16T08:58:10;11.98;;;6.35;;
9860;SDS011;4969;52.304;4.968;2023-07-16T09:00:39;9.80;;;5.70;;
9860;SDS011;4969;52.304;4.968;2023-07-16T09:03:07;10.63;;;5.78;;
9860;SDS011;4969;52.304;4.968;2023-07-16T09:05:34;10.05;;;4.97;;
9860;SDS011;4969;52.304;4.968;2023-07-16T09:08:01;7.63;;;5.22;;
9860;SDS011;4969;52.304;4.968;2023-07-16T09:10:29;8.48;;;5.45;;
9860;SDS011;4969;52.304;4.968;2023-07-16T09:12:57;9.40;;;5.65;;
9860;SDS011;4969;52.304;4.968;2023-07-16T09:15:25;10.05;;;4.97;;
9860;SDS011;4969;52.304;4.968;2023-07-16T09:17:54;6.20;;;4.88;;
9860;SDS011;4969;52.304;4.968;2023-07-16T09:20:21;10.13;;;5.18;;
9860;SDS011;4969;52.304;4.968;2023-07-16T09:22:49;8.85;;;5.15;;
9860;SDS011;4969;52.304;4.968;2023-07-16T09:25:16;8.73;;;4.90;;
9860;SDS011;4969;52.304;4.968;2023-07-16T09:27:42;7.07;;;4.85;;
9860;SDS011;4969;52.304;4.968;2023-07-16T09:30:15;8.95;;;5.68;;
9860;SDS011;4969;52.304;4.968;2023-07-16T09:32:42;8.20;;;5.00;;
9860;SDS011;4969;52.304;4.968;2023-07-16T09:35:09;9.40;;;5.20;;
9860;SDS011;4969;52.304;4.968;2023-07-16T09:37:36;9.20;;;5.80;;
9860;SDS011;4969;52.304;4.968;2023-07-16T09:40:04;12.65;;;5.88;;
9860;SDS011;4969;52.304;4.968;2023-07-16T09:42:34;9.38;;;5.10;;
9860;SDS011;4969;52.304;4.968;2023-07-16T09:45:03;11.40;;;5.75;;
9860;SDS011;4969;52.304;4.968;2023-07-16T09:47:33;8.38;;;6.35;;
9860;SDS011;4969;52.304;4.968;2023-07-16T09:50:00;8.05;;;5.78;;
9860;SDS011;4969;52.304;4.968;2023-07-16T09:52:27;7.93;;;5.72;;
9860;SDS011;4969;52.304;4.968;2023-07-16T09:54:54;10.75;;;6.53;;
9860;SDS011;4969;52.304;4.968;2023-07-16T09:57:22;8.98;;;6.03;;
9860;SDS011;4969;52.304;4.968;2023-07-16T09:59:51;7.80;;;5.03;;
9860;SDS011;4969;52.304;4.968;2023-07-16T10:02:19;10.02;;;6.07;;
9860;SDS011;4969;52.304;4.968;2023-07-16T10:04:48;11.60;;;5.80;;
9860;SDS011;4969;52.304;4.968;2023-07-16T10:07:19;6.82;;;5.35;;
9860;SDS011;4969;52.304;4.968;2023-07-16T10:09:50;8.00;;;5.18;;
9860;SDS011;4969;52.304;4.968;2023-07-16T10:12:20;9.80;;;5.22;;
9860;SDS011;4969;52.304;4.968;2023-07-16T10:14:47;9.50;;;5.72;;
9860;SDS011;4969;52.304;4.968;2023-07-16T10:17:15;8.38;;;5.28;;
9860;SDS011;4969;52.304;4.968;2023-07-16T10:19:46;10.55;;;5.50;;
9860;SDS011;4969;52.304;4.968;2023-07-16T10:22:15;9.40;;;5.28;;
9860;SDS011;4969;52.304;4.968;2023-07-16T10:24:41;8.32;;;5.07;;
9860;SDS011;4969;52.304;4.968;2023-07-16T10:27:08;8.70;;;5.53;;
9860;SDS011;4969;52.304;4.968;2023-07-16T10:29:35;9.68;;;5.38;;
9860;SDS011;4969;52.304;4.968;2023-07-16T10:32:02;8.00;;;5.43;;
9860;SDS011;4969;52.304;4.968;2023-07-16T10:34:32;7.80;;;4.53;;
9860;SDS011;4969;52.304;4.968;2023-07-16T10:37:02;9.63;;;4.40;;
9860;SDS011;4969;52.304;4.968;2023-07-16T10:39:29;10.82;;;4.38;;
9860;SDS011;4969;52.304;4.968;2023-07-16T10:41:56;7.47;;;4.60;;
9860;SDS011;4969;52.304;4.968;2023-07-16T10:44:23;8.18;;;4.30;;
9860;SDS011;4969;52.304;4.968;2023-07-16T10:46:49;8.13;;;5.00;;
9860;SDS011;4969;52.304;4.968;2023-07-16T10:49:26;9.27;;;4.90;;
9860;SDS011;4969;52.304;4.968;2023-07-16T10:51:53;7.35;;;4.65;;
9860;SDS011;4969;52.304;4.968;2023-07-16T10:54:21;9.02;;;4.70;;
9860;SDS011;4969;52.304;4.968;2023-07-16T10:56:49;10.02;;;4.32;;
9860;SDS011;4969;52.304;4.968;2023-07-16T10:59:16;7.47;;;3.22;;
9860;SDS011;4969;52.304;4.968;2023-07-16T11:01:43;6.97;;;3.50;;
9860;SDS011;4969;52.304;4.968;2023-07-16T11:04:10;4.30;;;2.80;;
9860;SDS011;4969;52.304;4.968;2023-07-16T11:06:36;4.40;;;3.10;;
9860;SDS011;4969;52.304;4.968;2023-07-16T11:09:06;4.32;;;3.30;;
9860;SDS011;4969;52.304;4.968;2023-07-16T11:11:35;5.78;;;3.45;;
9860;SDS011;4969;52.304;4.968;2023-07-16T11:14:03;6.32;;;3.28;;
9860;SDS011;4969;52.304;4.968;2023-07-16T11:16:32;7.43;;;3.00;;
9860;SDS011;4969;52.304;4.968;2023-07-16T11:19:01;6.07;;;3.03;;
9860;SDS011;4969;52.304;4.968;2023-07-16T11:21:28;8.13;;;3.47;;
9860;SDS011;4969;52.304;4.968;2023-07-16T11:23:55;4.90;;;3.22;;
9860;SDS011;4969;52.304;4.968;2023-07-16T11:26:21;5.97;;;3.10;;
9860;SDS011;4969;52.304;4.968;2023-07-16T11:28:50;5.75;;;3.20;;
9860;SDS011;4969;52.304;4.968;2023-07-16T11:31:17;10.93;;;3.33;;
9860;SDS011;4969;52.304;4.968;2023-07-16T11:33:44;5.28;;;2.65;;
9860;SDS011;4969;52.304;4.968;2023-07-16T11:36:11;7.03;;;2.72;;
9860;SDS011;4969;52.304;4.968;2023-07-16T11:38:38;5.53;;;2.42;;
9860;SDS011;4969;52.304;4.968;2023-07-16T11:41:05;6.38;;;2.50;;
9860;SDS011;4969;52.304;4.968;2023-07-16T11:43:34;5.80;;;2.70;;
9860;SDS011;4969;52.304;4.968;2023-07-16T11:46:02;4.75;;;2.42;;
9860;SDS011;4969;52.304;4.968;2023-07-16T11:48:29;9.88;;;3.10;;
9860;SDS011;4969;52.304;4.968;2023-07-16T11:50:56;6.28;;;3.15;;
9860;SDS011;4969;52.304;4.968;2023-07-16T11:53:22;7.03;;;2.83;;
9860;SDS011;4969;52.304;4.968;2023-07-16T11:55:49;4.30;;;2.30;;
9860;SDS011;4969;52.304;4.968;2023-07-16T11:58:16;5.55;;;2.33;;
9860;SDS011;4969;52.304;4.968;2023-07-16T12:00:42;6.32;;;2.60;;
9860;SDS011;4969;52.304;4.968;2023-07-16T12:03:10;5.55;;;2.40;;
9860;SDS011;4969;52.304;4.968;2023-07-16T12:05:37;5.13;;;2.60;;
9860;SDS011;4969;52.304;4.968;2023-07-16T12:08:04;7.28;;;2.45;;
9860;SDS011;4969;52.304;4.968;2023-07-16T12:10:30;8.45;;;2.28;;
9860;SDS011;4969;52.304;4.968;2023-07-16T12:12:57;4.60;;;2.28;;
9860;SDS011;4969;52.304;4.968;2023-07-16T12:15:24;8.60;;;2.78;;
9860;SDS011;4969;52.304;4.968;2023-07-16T12:17:50;4.95;;;1.80;;
9860;SDS011;4969;52.304;4.968;2023-07-16T12:20:18;5.78;;;2.10;;
9860;SDS011;4969;52.304;4.968;2023-07-16T12:22:45;5.63;;;2.50;;
9860;SDS011;4969;52.304;4.968;2023-07-16T12:25:11;7.22;;;2.05;;
9860;SDS011;4969;52.304;4.968;2023-07-16T12:27:38;5.97;;;2.00;;
9860;SDS011;4969;52.304;4.968;2023-07-16T12:30:05;6.78;;;1.83;;
9860;SDS011;4969;52.304;4.968;2023-07-16T12:32:33;4.75;;;2.03;;
9860;SDS011;4969;52.304;4.968;2023-07-16T12:34:59;6.20;;;2.05;;
9860;SDS011;4969;52.304;4.968;2023-07-16T12:37:27;6.50;;;2.08;;
9860;SDS011;4969;52.304;4.968;2023-07-16T12:39:54;4.63;;;1.77;;
9860;SDS011;4969;52.304;4.968;2023-07-16T12:42:21;5.30;;;2.20;;
9860;SDS011;4969;52.304;4.968;2023-07-16T12:44:47;8.93;;;2.50;;
9860;SDS011;4969;52.304;4.968;2023-07-16T12:47:15;7.18;;;2.13;;
9860;SDS011;4969;52.304;4.968;2023-07-16T12:49:42;6.00;;;2.40;;
9860;SDS011;4969;52.304;4.968;2023-07-16T12:52:08;9.43;;;2.55;;
9860;SDS011;4969;52.304;4.968;2023-07-16T12:54:36;9.77;;;2.75;;
9860;SDS011;4969;52.304;4.968;2023-07-16T12:57:03;8.20;;;2.38;;
9860;SDS011;4969;52.304;4.968;2023-07-16T12:59:30;7.72;;;2.42;;
9860;SDS011;4969;52.304;4.968;2023-07-16T13:01:57;7.00;;;2.70;;
9860;SDS011;4969;52.304;4.968;2023-07-16T13:04:23;7.03;;;2.38;;
9860;SDS011;4969;52.304;4.968;2023-07-16T13:06:50;5.65;;;2.40;;
9860;SDS011;4969;52.304;4.968;2023-07-16T13:09:16;7.65;;;2.65;;
9860;SDS011;4969;52.304;4.968;2023-07-16T13:11:44;10.07;;;3.08;;
9860;SDS011;4969;52.304;4.968;2023-07-16T13:14:11;8.52;;;2.95;;
9860;SDS011;4969;52.304;4.968;2023-07-16T13:16:37;12.40;;;2.75;;
9860;SDS011;4969;52.304;4.968;2023-07-16T13:19:04;8.85;;;2.65;;
9860;SDS011;4969;52.304;4.968;2023-07-16T13:21:31;8.60;;;2.72;;
9860;SDS011;4969;52.304;4.968;2023-07-16T13:23:57;8.82;;;2.80;;
9860;SDS011;4969;52.304;4.968;2023-07-16T13:26:24;9.32;;;2.85;;
9860;SDS011;4969;52.304;4.968;2023-07-16T13:28:52;9.43;;;2.35;;
9860;SDS011;4969;52.304;4.968;2023-07-16T13:31:18;11.52;;;2.20;;
9860;SDS011;4969;52.304;4.968;2023-07-16T13:33:45;9.05;;;2.60;;
9860;SDS011;4969;52.304;4.968;2023-07-16T13:36:11;6.68;;;2.28;;
9860;SDS011;4969;52.304;4.968;2023-07-16T13:38:38;4.43;;;2.20;;
9860;SDS011;4969;52.304;4.968;2023-07-16T13:41:05;5.90;;;2.00;;
9860;SDS011;4969;52.304;4.968;2023-07-16T13:43:31;6.10;;;2.05;;
9860;SDS011;4969;52.304;4.968;2023-07-16T13:45:59;7.88;;;2.10;;
9860;SDS011;4969;52.304;4.968;2023-07-16T13:48:26;7.90;;;2.75;;
9860;SDS011;4969;52.304;4.968;2023-07-16T13:50:53;6.35;;;2.35;;
9860;SDS011;4969;52.304;4.968;2023-07-16T13:53:20;7.88;;;2.60;;
9860;SDS011;4969;52.304;4.968;2023-07-16T13:55:47;6.68;;;2.50;;
9860;SDS011;4969;52.304;4.968;2023-07-16T13:58:13;5.72;;;2.05;;
9860;SDS011;4969;52.304;4.968;2023-07-16T14:00:40;4.85;;;2.08;;
9860;SDS011;4969;52.304;4.968;2023-07-16T14:03:08;7.43;;;2.60;;
9860;SDS011;4969;52.304;4.968;2023-07-16T14:05:35;4.15;;;2.00;;
9860;SDS011;4969;52.304;4.968;2023-07-16T14:08:03;6.68;;;2.30;;
9860;SDS011;4969;52.304;4.968;2023-07-16T14:10:30;6.68;;;2.63;;
9860;SDS011;4969;52.304;4.968;2023-07-16T14:12:57;10.07;;;2.38;;
9860;SDS011;4969;52.304;4.968;2023-07-16T14:15:23;8.93;;;2.40;;
9860;SDS011;4969;52.304;4.968;2023-07-16T14:17:50;5.30;;;2.10;;
9860;SDS011;4969;52.304;4.968;2023-07-16T14:20:18;5.25;;;2.03;;
9860;SDS011;4969;52.304;4.968;2023-07-16T14:22:45;6.95;;;2.38;;
9860;SDS011;4969;52.304;4.968;2023-07-16T14:25:11;8.80;;;2.97;;
9860;SDS011;4969;52.304;4.968;2023-07-16T14:27:38;8.23;;;2.65;;
9860;SDS011;4969;52.304;4.968;2023-07-16T14:30:05;11.27;;;3.15;;
9860;SDS011;4969;52.304;4.968;2023-07-16T14:32:33;8.27;;;2.70;;
9860;SDS011;4969;52.304;4.968;2023-07-16T14:35:00;8.27;;;2.90;;
9860;SDS011;4969;52.304;4.968;2023-07-16T14:37:28;9.38;;;2.80;;
9860;SDS011;4969;52.304;4.968;2023-07-16T14:39:55;7.82;;;2.75;;
9860;SDS011;4969;52.304;4.968;2023-07-16T14:42:22;9.73;;;2.72;;
9860;SDS011;4969;52.304;4.968;2023-07-16T14:44:48;8.98;;;2.83;;
9860;SDS011;4969;52.304;4.968;2023-07-16T14:47:15;9.40;;;3.00;;
9860;SDS011;4969;52.304;4.968;2023-07-16T14:49:42;6.90;;;2.65;;
9860;SDS011;4969;52.304;4.968;2023-07-16T14:52:08;6.70;;;2.20;;
9860;SDS011;4969;52.304;4.968;2023-07-16T14:54:36;5.53;;;2.60;;
9860;SDS011;4969;52.304;4.968;2023-07-16T14:57:03;9.93;;;2.75;;
9860;SDS011;4969;52.304;4.968;2023-07-16T14:59:30;9.68;;;2.42;;
9860;SDS011;4969;52.304;4.968;2023-07-16T15:01:56;7.85;;;2.33;;
9860;SDS011;4969;52.304;4.968;2023-07-16T15:04:23;7.03;;;2.65;;
9860;SDS011;4969;52.304;4.968;2023-07-16T15:06:50;9.30;;;2.95;;
9860;SDS011;4969;52.304;4.968;2023-07-16T15:09:16;8.32;;;2.60;;
9860;SDS011;4969;52.304;4.968;2023-07-16T15:11:44;8.57;;;2.65;;
9860;SDS011;4969;52.304;4.968;2023-07-16T15:14:11;7.38;;;3.20;;